KEWR/EWR METAR and TAF weather

Enter ICAO airport designator
Station Type Date Time Source
KEWR METAR 2019/10/15 07:51 UTC NOAA

KEWR 150751Z 34004KT 10SM FEW150 FEW250 12/05 A3011 RMK AO2 SLP194 T01170050 $


Station Type Date Time Source
KEWR Decoded METAR 2019/10/15 07:51 UTC NOAA

NEWARK INTERNATIONAL AIRPORT, NJ, United States (KEWR) 40-41N 74-10W 7M
Oct 15, 2019 - 03:51 AM EDT / 2019.10.15 0751 UTC
Wind: from the NNW (340 degrees) at 5 MPH (4 KT):0
Visibility: 10 mile(s):0
Sky conditions: mostly clear
Temperature: 53.1 F (11.7 C)
Dew Point: 41.0 F (5.0 C)
Relative Humidity: 63%
Pressure (altimeter): 30.11 in. Hg (1019 hPa)
ob: KEWR 150751Z 34004KT 10SM FEW150 FEW250 12/05 A3011 RMK AO2 SLP194 T01170050
cycle: 8

Station Type Date Time Source
KEWR TAF 2019/10/15 09:34 UTC NOAA

TAF
AMD KEWR 150832Z 1509/1612 34005KT P6SM FEW150 FEW250
FM151700 28006KT P6SM FEW250
FM152000 21006KT P6SM SCT250
FM152300 18006KT P6SM SCT250
FM160800 12004KT P6SM SCT040 BKN250

Example: see airport list